Capt Primeaux — WDI3600 — position and weather

sailwx.info

Track history (hours):
 
Tides and Currents Weather Stations Pressure Air Temp Water Temp Dewpoint Dewpoint Depression Visibility Wind Speed Wind Dir Waves Ship Positions

Capt Primeaux

Owner: Higman Barge Line, Inc., Orange, TX. More information available from US FCC via Universal Licensing System and Coast Guard Vessel Documentation Center.

Last reported at 2018-Jan-11 18:21 UTC. Time now 2018-Jan-20 10:58 UTC.
Position N 30°04' W 093°41'.
Warning: this ship's position is 8 days out of date.

Length 26 m; draft 3 m.

Type: Towing. MMSI: 367690010.

Date/timePositionNaut miles runAvg speedWind from/ knotsBaromVisibWave heightAir tempDewpointWater temp
2018-Jan-11 18:21N 30°04' W 093°41'0 0.7
2018-Jan-11 17:47N 30°04' W 093°41'2 5.6
2018-Jan-11 17:30N 30°04' W 093°39'13 5.3
2018-Jan-11 15:06N 30°04' W 093°24'0 5.0
2018-Jan-11 15:00N 30°04' W 093°24'2 4.0
2018-Jan-11 14:30N 30°04' W 093°21'2 3.1
2018-Jan-11 14:00N 30°05' W 093°20'2 4.6
2018-Jan-11 13:30N 30°07' W 093°20'1 2.8
2018-Jan-11 13:00N 30°08' W 093°19'0 0.0
2018-Jan-11 12:30N 30°08' W 093°19'0 0.0
2018-Jan-11 12:00N 30°08' W 093°19'0 0.0
2018-Jan-11 11:30N 30°08' W 093°19'0 0.0
2018-Jan-11 11:00N 30°08' W 093°19'0 0.0
2018-Jan-11 10:30N 30°08' W 093°19'0 0.0
2018-Jan-11 10:00N 30°08' W 093°19'0 0.0
2018-Jan-11 09:30N 30°08' W 093°19'0 0.0
2018-Jan-11 09:00N 30°08' W 093°19'0 0.0
2018-Jan-11 08:30N 30°08' W 093°19'0 0.0
2018-Jan-11 08:00N 30°08' W 093°19'0 0.0
2018-Jan-11 07:30N 30°08' W 093°19'0 0.0
2018-Jan-11 07:00N 30°08' W 093°19'0 0.0
2018-Jan-11 06:30N 30°08' W 093°19'0 0.0
2018-Jan-11 06:00N 30°08' W 093°19'0 0.0
2018-Jan-11 05:30N 30°08' W 093°19'0 0.0
2018-Jan-11 05:00N 30°08' W 093°19'0 0.0
2018-Jan-11 04:30N 30°08' W 093°19'0 0.0
2018-Jan-11 04:00N 30°08' W 093°19'0 0.0
2018-Jan-11 03:30N 30°08' W 093°19'0 0.0
2018-Jan-11 03:00N 30°08' W 093°19'0 0.0
2018-Jan-11 02:30N 30°08' W 093°19'0 0.0
2018-Jan-11 02:00N 30°08' W 093°19'0 0.0
2018-Jan-11 01:30N 30°08' W 093°19'0 0.0
2018-Jan-11 01:00N 30°08' W 093°19'0 0.0
2018-Jan-11 00:30N 30°08' W 093°19'0 0.0
2018-Jan-11 00:00N 30°08' W 093°19'0 0.0
2018-Jan-10 23:30N 30°08' W 093°19'0 0.0
2018-Jan-10 23:00N 30°08' W 093°19'0 0.0
2018-Jan-10 22:30N 30°08' W 093°19'0 0.0
2018-Jan-10 22:00N 30°08' W 093°19'0 0.0
2018-Jan-10 21:30N 30°08' W 093°19'0 0.0
2018-Jan-10 21:00N 30°08' W 093°19'0 0.1
2018-Jan-10 20:30N 30°08' W 093°19'0 0.0
2018-Jan-10 20:00N 30°08' W 093°19'0 0.0
2018-Jan-10 19:30N 30°08' W 093°19'0 0.5
2018-Jan-10 18:59N 30°08' W 093°20'0 0.0
2018-Jan-10 18:30N 30°08' W 093°20'0 0.0
2018-Jan-10 18:00N 30°08' W 093°20'0 0.0
2018-Jan-10 17:30N 30°08' W 093°20'0 0.0
2018-Jan-10 17:00N 30°08' W 093°20'0 0.0
2018-Jan-10 16:30N 30°08' W 093°20'0 0.0
2018-Jan-10 16:00N 30°08' W 093°20'0 0.0
2018-Jan-10 15:30N 30°08' W 093°20'0 0.0
2018-Jan-10 15:00N 30°08' W 093°20'0 0.0
2018-Jan-10 14:30N 30°08' W 093°20'0 0.9
2018-Jan-10 14:00N 30°08' W 093°20'0 0.3
2018-Jan-10 13:30N 30°08' W 093°20'1 2.1
2018-Jan-10 13:00N 30°06' W 093°20'2 3.3
2018-Jan-10 12:30N 30°05' W 093°20'2 3.4
2018-Jan-10 12:00N 30°04' W 093°21'2 3.5
2018-Jan-10 11:30N 30°04' W 093°23'2 4.1
2018-Jan-10 11:00N 30°04' W 093°26'2 4.2
2018-Jan-10 10:30N 30°04' W 093°28'2 4.3
2018-Jan-10 10:00N 30°04' W 093°31'2 3.9
2018-Jan-10 09:30N 30°04' W 093°33'2 4.3
2018-Jan-10 09:00N 30°04' W 093°35'  
2018-Jan-03 18:27N 30°04' W 093°31'1 1.3
2018-Jan-03 18:00N 30°04' W 093°30'2 4.6
2018-Jan-03 17:30N 30°04' W 093°27'2 4.2
2018-Jan-03 17:00N 30°04' W 093°25'2 4.7
2018-Jan-03 16:30N 30°04' W 093°22'2 3.5
2018-Jan-03 16:00N 30°04' W 093°20'2 3.5
2018-Jan-03 15:30N 30°06' W 093°19'0 0.6
2018-Jan-03 15:00N 30°06' W 093°19'0 0.0
2018-Jan-03 14:30N 30°06' W 093°19'0 0.0
2018-Jan-03 14:00N 30°06' W 093°19'0 0.0
2018-Jan-03 13:30N 30°06' W 093°19'0 0.0
2018-Jan-03 13:00N 30°06' W 093°19'0 0.0
2018-Jan-03 12:30N 30°06' W 093°19'0 0.0
2018-Jan-03 12:00N 30°06' W 093°19'0 0.0
2018-Jan-03 11:30N 30°06' W 093°19'0 0.0
2018-Jan-03 11:00N 30°06' W 093°19'0 0.0
2018-Jan-03 10:30N 30°06' W 093°19'0 0.0
2018-Jan-03 10:00N 30°06' W 093°19'0 0.0
2018-Jan-03 09:30N 30°06' W 093°19'0 0.0
2018-Jan-03 09:00N 30°06' W 093°19'0 0.1
2018-Jan-03 08:30N 30°06' W 093°19'0 0.0
2018-Jan-03 08:00N 30°06' W 093°19'0 0.0
2018-Jan-03 07:30N 30°06' W 093°19'0 0.0
2018-Jan-03 07:00N 30°06' W 093°19'0 0.0
2018-Jan-03 06:30N 30°06' W 093°19'0 0.0
2018-Jan-03 06:00N 30°06' W 093°19'0 0.1
2018-Jan-03 05:30N 30°06' W 093°19'0 0.1
2018-Jan-03 05:00N 30°06' W 093°19'0 0.0
2018-Jan-03 04:30N 30°06' W 093°19'0 0.0
2018-Jan-03 04:00N 30°06' W 093°19'0 0.0
2018-Jan-03 03:30N 30°06' W 093°19'0 0.1
2018-Jan-03 03:00N 30°06' W 093°19'0 0.0
2018-Jan-03 02:30N 30°06' W 093°19'0 0.0
2018-Jan-03 02:00N 30°06' W 093°19'0 0.0
2018-Jan-03 01:30N 30°06' W 093°19'0 0.0
2018-Jan-03 01:00N 30°06' W 093°19'0 0.0
2018-Jan-03 00:30N 30°06' W 093°19'0 0.0
2018-Jan-03 00:00N 30°06' W 093°19'0 0.0
2018-Jan-02 23:30N 30°06' W 093°19'0 0.0
2018-Jan-02 23:00N 30°06' W 093°19'0 0.0
2018-Jan-02 22:30N 30°06' W 093°19'0 0.0
2018-Jan-02 22:00N 30°06' W 093°19'0 0.0
2018-Jan-02 21:30N 30°06' W 093°19'0 0.0
2018-Jan-02 21:00N 30°06' W 093°19'0 0.0
2018-Jan-02 20:30N 30°06' W 093°19'0 0.0
2018-Jan-02 20:00N 30°06' W 093°19'0 0.1
2018-Jan-02 19:30N 30°06' W 093°19'0 0.0
2018-Jan-02 19:00N 30°06' W 093°19'0 0.1
2018-Jan-02 18:30N 30°06' W 093°19'0 0.1
2018-Jan-02 18:00N 30°06' W 093°19'0 0.0
2018-Jan-02 17:30N 30°06' W 093°19'0 0.0
2018-Jan-02 17:00N 30°06' W 093°19'0 0.0
2018-Jan-02 16:30N 30°06' W 093°19'0 0.0
2018-Jan-02 16:00N 30°06' W 093°19'0 0.0
2018-Jan-02 15:30N 30°06' W 093°19'0 0.0
2018-Jan-02 15:00N 30°06' W 093°19'0 0.0
2018-Jan-02 14:30N 30°06' W 093°19'0 0.0
2018-Jan-02 14:00N 30°06' W 093°19'0 0.0
2018-Jan-02 13:30N 30°06' W 093°19'0 0.0
2018-Jan-02 13:01N 30°06' W 093°19'0 0.0
2018-Jan-02 12:31N 30°06' W 093°19'0 0.0
2018-Jan-02 12:00N 30°06' W 093°19'0 0.0
2018-Jan-02 11:30N 30°06' W 093°19'0 0.0
2018-Jan-02 11:00N 30°06' W 093°19'0 0.0
2018-Jan-02 10:30N 30°06' W 093°19'0 0.0
2018-Jan-02 10:00N 30°06' W 093°19'0 0.0
2018-Jan-02 09:31N 30°06' W 093°19'2 2.1
2018-Jan-02 08:30N 30°08' W 093°19'0 0.0
2018-Jan-02 08:00N 30°08' W 093°19'0 0.0
2018-Jan-02 07:30N 30°08' W 093°19'0 0.0
2018-Jan-02 07:00N 30°08' W 093°19'0 0.0
2018-Jan-02 06:30N 30°08' W 093°19'0 0.0
2018-Jan-02 06:00N 30°08' W 093°19'0 0.0
2018-Jan-02 05:30N 30°08' W 093°19'0 0.0
2018-Jan-02 04:30N 30°08' W 093°19'0 0.0
2018-Jan-02 04:00N 30°08' W 093°19'0 0.0
2018-Jan-02 03:30N 30°08' W 093°19'0 0.0
2018-Jan-02 03:00N 30°08' W 093°19'0 0.0
2018-Jan-02 02:30N 30°08' W 093°19'0 0.0
2018-Jan-02 02:00N 30°08' W 093°19'0 0.0
2018-Jan-02 01:30N 30°08' W 093°19'0 0.0
2018-Jan-02 01:00N 30°08' W 093°19'0 0.0
2018-Jan-02 00:30N 30°08' W 093°19'0 0.0
2018-Jan-02 00:00N 30°08' W 093°19'0 0.0
2018-Jan-01 23:30N 30°08' W 093°19'0 0.0
2018-Jan-01 23:00N 30°08' W 093°19'0 0.0
2018-Jan-01 22:30N 30°08' W 093°19'0 0.0
2018-Jan-01 22:00N 30°08' W 093°19'0 0.0
2018-Jan-01 21:30N 30°08' W 093°19'0 0.0
2018-Jan-01 21:00N 30°08' W 093°19'0 0.0
2018-Jan-01 20:30N 30°08' W 093°19'0 0.0
2018-Jan-01 20:00N 30°08' W 093°19'0 0.0
2018-Jan-01 19:30N 30°08' W 093°19'0 0.0
2018-Jan-01 19:00N 30°08' W 093°19'0 0.0
2018-Jan-01 18:30N 30°08' W 093°19'  
Track history (hours):
 
Tides and Currents Weather Stations Pressure Air Temp Water Temp Dewpoint Dewpoint Depression Visibility Wind Speed Wind Dir Waves Ship Positions

Capt Primeaux

Owner: Higman Barge Line, Inc., Orange, TX. More information available from US FCC via Universal Licensing System and Coast Guard Vessel Documentation Center.

Last reported at 2018-Jan-11 18:21 UTC. Time now 2018-Jan-20 10:58 UTC.
Position N 30°04' W 093°41'.
Warning: this ship's position is 8 days out of date.

Length 26 m; draft 3 m.

Type: Towing. MMSI: 367690010.

Date/timePositionNaut miles runAvg speedWind from/ knotsBaromVisibWave heightAir tempDewpointWater temp
2018-Jan-11 18:21N 30°04' W 093°41'0 0.7
2018-Jan-11 17:47N 30°04' W 093°41'2 5.6
2018-Jan-11 17:30N 30°04' W 093°39'13 5.3
2018-Jan-11 15:06N 30°04' W 093°24'0 5.0
2018-Jan-11 15:00N 30°04' W 093°24'2 4.0
2018-Jan-11 14:30N 30°04' W 093°21'2 3.1
2018-Jan-11 14:00N 30°05' W 093°20'2 4.6
2018-Jan-11 13:30N 30°07' W 093°20'1 2.8
2018-Jan-11 13:00N 30°08' W 093°19'0 0.0
2018-Jan-11 12:30N 30°08' W 093°19'0 0.0
2018-Jan-11 12:00N 30°08' W 093°19'0 0.0
2018-Jan-11 11:30N 30°08' W 093°19'0 0.0
2018-Jan-11 11:00N 30°08' W 093°19'0 0.0
2018-Jan-11 10:30N 30°08' W 093°19'0 0.0
2018-Jan-11 10:00N 30°08' W 093°19'0 0.0
2018-Jan-11 09:30N 30°08' W 093°19'0 0.0
2018-Jan-11 09:00N 30°08' W 093°19'0 0.0
2018-Jan-11 08:30N 30°08' W 093°19'0 0.0
2018-Jan-11 08:00N 30°08' W 093°19'0 0.0
2018-Jan-11 07:30N 30°08' W 093°19'0 0.0
2018-Jan-11 07:00N 30°08' W 093°19'0 0.0
2018-Jan-11 06:30N 30°08' W 093°19'0 0.0
2018-Jan-11 06:00N 30°08' W 093°19'0 0.0
2018-Jan-11 05:30N 30°08' W 093°19'0 0.0
2018-Jan-11 05:00N 30°08' W 093°19'0 0.0
2018-Jan-11 04:30N 30°08' W 093°19'0 0.0
2018-Jan-11 04:00N 30°08' W 093°19'0 0.0
2018-Jan-11 03:30N 30°08' W 093°19'0 0.0
2018-Jan-11 03:00N 30°08' W 093°19'0 0.0
2018-Jan-11 02:30N 30°08' W 093°19'0 0.0
2018-Jan-11 02:00N 30°08' W 093°19'0 0.0
2018-Jan-11 01:30N 30°08' W 093°19'0 0.0
2018-Jan-11 01:00N 30°08' W 093°19'0 0.0
2018-Jan-11 00:30N 30°08' W 093°19'0 0.0
2018-Jan-11 00:00N 30°08' W 093°19'0 0.0
2018-Jan-10 23:30N 30°08' W 093°19'0 0.0
2018-Jan-10 23:00N 30°08' W 093°19'0 0.0
2018-Jan-10 22:30N 30°08' W 093°19'0 0.0
2018-Jan-10 22:00N 30°08' W 093°19'0 0.0
2018-Jan-10 21:30N 30°08' W 093°19'0 0.0
2018-Jan-10 21:00N 30°08' W 093°19'0 0.1
2018-Jan-10 20:30N 30°08' W 093°19'0 0.0
2018-Jan-10 20:00N 30°08' W 093°19'0 0.0
2018-Jan-10 19:30N 30°08' W 093°19'0 0.5
2018-Jan-10 18:59N 30°08' W 093°20'0 0.0
2018-Jan-10 18:30N 30°08' W 093°20'0 0.0
2018-Jan-10 18:00N 30°08' W 093°20'0 0.0
2018-Jan-10 17:30N 30°08' W 093°20'0 0.0
2018-Jan-10 17:00N 30°08' W 093°20'0 0.0
2018-Jan-10 16:30N 30°08' W 093°20'0 0.0
2018-Jan-10 16:00N 30°08' W 093°20'0 0.0
2018-Jan-10 15:30N 30°08' W 093°20'0 0.0
2018-Jan-10 15:00N 30°08' W 093°20'0 0.0
2018-Jan-10 14:30N 30°08' W 093°20'0 0.9
2018-Jan-10 14:00N 30°08' W 093°20'0 0.3
2018-Jan-10 13:30N 30°08' W 093°20'1 2.1
2018-Jan-10 13:00N 30°06' W 093°20'2 3.3
2018-Jan-10 12:30N 30°05' W 093°20'2 3.4
2018-Jan-10 12:00N 30°04' W 093°21'2 3.5
2018-Jan-10 11:30N 30°04' W 093°23'2 4.1
2018-Jan-10 11:00N 30°04' W 093°26'2 4.2
2018-Jan-10 10:30N 30°04' W 093°28'2 4.3
2018-Jan-10 10:00N 30°04' W 093°31'2 3.9
2018-Jan-10 09:30N 30°04' W 093°33'2 4.3
2018-Jan-10 09:00N 30°04' W 093°35'  
2018-Jan-03 18:27N 30°04' W 093°31'1 1.3
2018-Jan-03 18:00N 30°04' W 093°30'2 4.6
2018-Jan-03 17:30N 30°04' W 093°27'2 4.2
2018-Jan-03 17:00N 30°04' W 093°25'2 4.7
2018-Jan-03 16:30N 30°04' W 093°22'2 3.5
2018-Jan-03 16:00N 30°04' W 093°20'2 3.5
2018-Jan-03 15:30N 30°06' W 093°19'0 0.6
2018-Jan-03 15:00N 30°06' W 093°19'0 0.0
2018-Jan-03 14:30N 30°06' W 093°19'0 0.0
2018-Jan-03 14:00N 30°06' W 093°19'0 0.0
2018-Jan-03 13:30N 30°06' W 093°19'0 0.0
2018-Jan-03 13:00N 30°06' W 093°19'0 0.0
2018-Jan-03 12:30N 30°06' W 093°19'0 0.0
2018-Jan-03 12:00N 30°06' W 093°19'0 0.0
2018-Jan-03 11:30N 30°06' W 093°19'0 0.0
2018-Jan-03 11:00N 30°06' W 093°19'0 0.0
2018-Jan-03 10:30N 30°06' W 093°19'0 0.0
2018-Jan-03 10:00N 30°06' W 093°19'0 0.0
2018-Jan-03 09:30N 30°06' W 093°19'0 0.0
2018-Jan-03 09:00N 30°06' W 093°19'0 0.1
2018-Jan-03 08:30N 30°06' W 093°19'0 0.0
2018-Jan-03 08:00N 30°06' W 093°19'0 0.0
2018-Jan-03 07:30N 30°06' W 093°19'0 0.0
2018-Jan-03 07:00N 30°06' W 093°19'0 0.0
2018-Jan-03 06:30N 30°06' W 093°19'0 0.0
2018-Jan-03 06:00N 30°06' W 093°19'0 0.1
2018-Jan-03 05:30N 30°06' W 093°19'0 0.1
2018-Jan-03 05:00N 30°06' W 093°19'0 0.0
2018-Jan-03 04:30N 30°06' W 093°19'0 0.0
2018-Jan-03 04:00N 30°06' W 093°19'0 0.0
2018-Jan-03 03:30N 30°06' W 093°19'0 0.1
2018-Jan-03 03:00N 30°06' W 093°19'0 0.0
2018-Jan-03 02:30N 30°06' W 093°19'0 0.0
2018-Jan-03 02:00N 30°06' W 093°19'0 0.0
2018-Jan-03 01:30N 30°06' W 093°19'0 0.0
2018-Jan-03 01:00N 30°06' W 093°19'0 0.0
2018-Jan-03 00:30N 30°06' W 093°19'0 0.0
2018-Jan-03 00:00N 30°06' W 093°19'0 0.0
2018-Jan-02 23:30N 30°06' W 093°19'0 0.0
2018-Jan-02 23:00N 30°06' W 093°19'0 0.0
2018-Jan-02 22:30N 30°06' W 093°19'0 0.0
2018-Jan-02 22:00N 30°06' W 093°19'0 0.0
2018-Jan-02 21:30N 30°06' W 093°19'0 0.0
2018-Jan-02 21:00N 30°06' W 093°19'0 0.0
2018-Jan-02 20:30N 30°06' W 093°19'0 0.0
2018-Jan-02 20:00N 30°06' W 093°19'0 0.1
2018-Jan-02 19:30N 30°06' W 093°19'0 0.0
2018-Jan-02 19:00N 30°06' W 093°19'0 0.1
2018-Jan-02 18:30N 30°06' W 093°19'0 0.1
2018-Jan-02 18:00N 30°06' W 093°19'0 0.0
2018-Jan-02 17:30N 30°06' W 093°19'0 0.0
2018-Jan-02 17:00N 30°06' W 093°19'0 0.0
2018-Jan-02 16:30N 30°06' W 093°19'0 0.0
2018-Jan-02 16:00N 30°06' W 093°19'0 0.0
2018-Jan-02 15:30N 30°06' W 093°19'0 0.0
2018-Jan-02 15:00N 30°06' W 093°19'0 0.0
2018-Jan-02 14:30N 30°06' W 093°19'0 0.0
2018-Jan-02 14:00N 30°06' W 093°19'0 0.0
2018-Jan-02 13:30N 30°06' W 093°19'0 0.0
2018-Jan-02 13:01N 30°06' W 093°19'0 0.0
2018-Jan-02 12:31N 30°06' W 093°19'0 0.0
2018-Jan-02 12:00N 30°06' W 093°19'0 0.0
2018-Jan-02 11:30N 30°06' W 093°19'0 0.0
2018-Jan-02 11:00N 30°06' W 093°19'0 0.0
2018-Jan-02 10:30N 30°06' W 093°19'0 0.0
2018-Jan-02 10:00N 30°06' W 093°19'0 0.0
2018-Jan-02 09:31N 30°06' W 093°19'2 2.1
2018-Jan-02 08:30N 30°08' W 093°19'0 0.0
2018-Jan-02 08:00N 30°08' W 093°19'0 0.0
2018-Jan-02 07:30N 30°08' W 093°19'0 0.0
2018-Jan-02 07:00N 30°08' W 093°19'0 0.0
2018-Jan-02 06:30N 30°08' W 093°19'0 0.0
2018-Jan-02 06:00N 30°08' W 093°19'0 0.0
2018-Jan-02 05:30N 30°08' W 093°19'0 0.0
2018-Jan-02 04:30N 30°08' W 093°19'0 0.0
2018-Jan-02 04:00N 30°08' W 093°19'0 0.0
2018-Jan-02 03:30N 30°08' W 093°19'0 0.0
2018-Jan-02 03:00N 30°08' W 093°19'0 0.0
2018-Jan-02 02:30N 30°08' W 093°19'0 0.0
2018-Jan-02 02:00N 30°08' W 093°19'0 0.0
2018-Jan-02 01:30N 30°08' W 093°19'0 0.0
2018-Jan-02 01:00N 30°08' W 093°19'0 0.0
2018-Jan-02 00:30N 30°08' W 093°19'0 0.0
2018-Jan-02 00:00N 30°08' W 093°19'0 0.0
2018-Jan-01 23:30N 30°08' W 093°19'0 0.0
2018-Jan-01 23:00N 30°08' W 093°19'0 0.0
2018-Jan-01 22:30N 30°08' W 093°19'0 0.0
2018-Jan-01 22:00N 30°08' W 093°19'0 0.0
2018-Jan-01 21:30N 30°08' W 093°19'0 0.0
2018-Jan-01 21:00N 30°08' W 093°19'0 0.0
2018-Jan-01 20:30N 30°08' W 093°19'0 0.0
2018-Jan-01 20:00N 30°08' W 093°19'0 0.0
2018-Jan-01 19:30N 30°08' W 093°19'0 0.0
2018-Jan-01 19:00N 30°08' W 093°19'0 0.0
2018-Jan-01 18:30N 30°08' W 093°19'  

Dump ship's entire track history